createdAt,value
2018-09-10T00:00:58.098Z,101936.50
2018-09-10T00:03:26.749Z,101932.95
2018-09-10T00:05:55.189Z,101937.78
2018-09-10T00:08:23.621Z,101930.28
2018-09-10T00:10:52.273Z,101931.17
2018-09-10T00:13:20.722Z,101919.27
2018-09-10T00:15:49.581Z,101922.77
2018-09-10T00:18:18.034Z,101928.92
2018-09-10T00:20:46.586Z,101926.70
2018-09-10T00:23:15.030Z,101926.17
2018-09-10T00:25:43.523Z,101928.88
2018-09-10T00:28:11.950Z,101924.02
2018-09-10T00:30:40.982Z,101922.66
2018-09-10T00:33:09.472Z,101929.70
2018-09-10T00:35:37.908Z,101930.53
2018-09-10T00:38:06.353Z,101930.92
2018-09-10T00:40:35.137Z,101924.73
2018-09-10T00:43:03.618Z,101925.63
2018-09-10T00:45:32.070Z,101926.49
2018-09-10T00:48:00.887Z,101919.80
2018-09-10T00:50:29.329Z,101923.27
2018-09-10T00:52:57.961Z,101917.55
2018-09-10T00:55:26.425Z,101913.59
2018-09-10T00:57:54.870Z,101911.37
2018-09-10T01:00:23.749Z,101914.91
2018-09-10T01:02:52.682Z,101918.91
2018-09-10T01:05:21.161Z,101914.95
2018-09-10T01:07:49.713Z,101916.30
2018-09-10T01:10:18.216Z,101919.77
2018-09-10T01:12:46.981Z,101918.88
2018-09-10T01:15:15.470Z,101918.80
2018-09-10T01:17:43.988Z,101918.34
2018-09-10T01:20:12.703Z,101922.27
2018-09-10T01:22:41.142Z,101920.91
2018-09-10T01:25:10.861Z,101913.37
2018-09-10T01:27:39.583Z,101914.19
2018-09-10T01:30:08.718Z,101913.73
2018-09-10T01:32:38.169Z,101913.26
2018-09-10T01:35:07.708Z,101908.83
2018-09-10T01:37:36.649Z,101916.30
2018-09-10T01:40:05.735Z,101817.47
2018-09-10T01:42:34.185Z,101914.47
2018-09-10T01:45:03.225Z,101913.61
2018-09-10T01:47:31.997Z,101911.83
2018-09-10T01:50:00.457Z,101909.61
2018-09-10T01:52:29.402Z,101910.01
2018-09-10T01:54:58.069Z,101908.18
2018-09-10T01:57:26.501Z,101907.67
2018-09-10T01:59:54.935Z,101902.78
2018-09-10T02:02:23.470Z,101899.20
2018-09-10T02:04:52.234Z,101896.09
2018-09-10T02:07:20.670Z,101898.27
2018-09-10T02:09:49.144Z,101895.16
2018-09-10T02:12:22.899Z,101897.27
2018-09-10T02:14:51.905Z,101897.70
2018-09-10T02:17:20.373Z,101894.16
2018-09-10T02:19:48.813Z,101890.59
2018-09-10T02:22:17.586Z,101893.62
2018-09-10T02:24:46.027Z,101894.94
2018-09-10T02:27:14.490Z,101892.69
2018-09-10T02:29:42.983Z,101886.94
2018-09-10T02:32:11.602Z,101886.00
2018-09-10T02:34:40.511Z,101877.64
2018-09-10T02:37:09.245Z,101881.65
2018-09-10T02:39:37.701Z,101878.97
2018-09-10T02:42:06.462Z,101877.57
2018-09-10T02:44:35.242Z,101874.46
2018-09-10T02:47:03.681Z,101883.72
2018-09-10T02:49:32.396Z,101884.56
2018-09-10T02:52:01.033Z,101880.99
2018-09-10T02:54:29.458Z,101878.34
2018-09-10T02:56:58.103Z,101879.59
2018-09-10T02:59:26.732Z,101874.70
2018-09-10T03:01:55.170Z,101875.52
2018-09-10T03:04:23.617Z,101873.30
2018-09-10T03:06:52.789Z,101868.41
2018-09-10T03:09:21.215Z,101864.87
2018-09-10T03:11:49.941Z,101871.01
2018-09-10T03:14:18.581Z,101867.47
2018-09-10T03:16:47.023Z,101869.65
2018-09-10T03:19:15.493Z,101867.86
2018-09-10T03:21:47.317Z,101857.72
2018-09-10T03:24:15.928Z,101860.75
2018-09-10T03:26:44.365Z,101859.39
2018-09-10T03:29:12.796Z,101851.85
2018-09-10T03:31:41.237Z,101850.06
2018-09-10T03:34:10.607Z,101846.10
2018-09-10T03:36:40.369Z,101840.86
2018-09-10T03:39:10.149Z,101840.35
2018-09-10T03:41:38.691Z,101842.91
2018-09-10T03:44:07.453Z,101838.95
2018-09-10T03:46:35.889Z,101836.23
2018-09-10T03:49:04.367Z,101836.23
2018-09-10T03:51:32.812Z,101841.95
2018-09-10T03:54:01.239Z,101845.48
2018-09-10T03:56:29.771Z,101841.05
2018-09-10T03:58:58.349Z,101840.16
2018-09-10T04:01:26.797Z,101838.37
2018-09-10T04:03:55.285Z,101840.55
2018-09-10T04:06:23.721Z,101836.94
2018-09-10T04:08:52.250Z,101836.81
2018-09-10T04:11:20.856Z,101830.52
2018-09-10T04:13:49.301Z,101834.41
2018-09-10T04:16:17.769Z,101829.50
2018-09-10T04:18:47.137Z,101829.89
2018-09-10T04:21:15.623Z,101827.59
2018-09-10T04:23:44.603Z,101820.53
2018-09-10T04:26:13.097Z,101816.95
2018-09-10T04:28:41.523Z,101822.66
2018-09-10T04:31:10.058Z,101818.70
2018-09-10T04:33:38.785Z,101820.53
2018-09-10T04:36:07.280Z,101820.19
2018-09-10T04:38:36.372Z,101815.37
2018-09-10T04:41:04.886Z,101815.88
2018-09-10T04:43:33.323Z,101811.14
2018-09-10T04:46:02.002Z,101804.53
2018-09-10T04:48:30.590Z,101812.50
2018-09-10T04:50:59.018Z,101810.79
2018-09-10T04:53:27.554Z,101801.55
2018-09-10T04:55:56.036Z,101806.87
2018-09-10T04:58:24.501Z,101803.41
2018-09-10T05:00:53.146Z,101803.91
2018-09-10T05:03:21.645Z,101804.06
2018-09-10T05:05:50.173Z,101803.83
2018-09-10T05:08:18.610Z,101800.48
2018-09-10T05:10:47.308Z,101799.73
2018-09-10T05:13:15.738Z,101799.03
2018-09-10T05:15:51.242Z,101799.20
2018-09-10T05:18:19.689Z,101798.09
2018-09-10T05:20:48.209Z,101801.34
2018-09-10T05:23:16.896Z,101795.73
2018-09-10T05:25:45.558Z,101792.33
2018-09-10T05:28:14.038Z,101794.65
2018-09-10T05:30:42.475Z,101797.89
2018-09-10T05:33:11.060Z,101791.44
2018-09-10T05:35:39.506Z,101791.57
2018-09-10T05:38:08.682Z,101796.53
2018-09-10T05:40:38.656Z,101797.55
2018-09-10T05:43:07.086Z,101798.14
2018-09-10T05:45:35.699Z,101800.05
2018-09-10T05:48:04.160Z,101795.30
2018-09-10T05:50:32.594Z,101792.81
2018-09-10T05:53:01.090Z,101784.50
2018-09-10T05:55:29.577Z,101789.05
2018-09-10T05:57:57.984Z,101793.16
2018-09-10T06:00:26.691Z,101783.52
2018-09-10T06:02:55.546Z,101777.05
2018-09-10T06:05:23.986Z,101782.45
2018-09-10T06:07:52.546Z,101776.80
2018-09-10T06:10:21.025Z,101773.83
2018-09-10T06:12:49.462Z,101764.20
2018-09-10T06:15:17.968Z,101771.80
2018-09-10T06:17:46.415Z,101773.66
2018-09-10T06:20:14.947Z,101775.06
2018-09-10T06:22:43.414Z,101776.03
2018-09-10T06:25:11.858Z,101774.77
2018-09-10T06:27:40.440Z,101767.33
2018-09-10T06:30:09.011Z,101764.78
2018-09-10T06:32:37.980Z,101763.57
2018-09-10T06:35:06.484Z,101753.97
2018-09-10T06:37:35.008Z,101768.73
2018-09-10T06:40:03.479Z,101758.17
2018-09-10T06:42:32.047Z,101760.47
2018-09-10T06:45:00.794Z,101761.94
2018-09-10T06:47:29.233Z,101756.34
2018-09-10T06:49:57.680Z,101753.95
2018-09-10T06:52:26.134Z,101749.21
2018-09-10T06:54:54.593Z,101752.02
2018-09-10T06:57:23.049Z,101745.70
2018-09-10T06:59:51.564Z,101752.20
2018-09-10T07:02:26.535Z,101750.11
2018-09-10T07:04:55.536Z,101755.17
2018-09-10T07:07:23.975Z,101753.98
2018-09-10T07:09:52.449Z,101747.46
2018-09-10T07:12:20.917Z,101739.55
2018-09-10T07:14:49.337Z,101742.21
2018-09-10T07:17:17.773Z,101738.16
2018-09-10T07:19:46.214Z,101743.01
2018-09-10T07:22:14.665Z,101730.00
2018-09-10T07:24:43.142Z,101732.56
2018-09-10T07:27:11.605Z,101719.66
2018-09-10T07:29:40.102Z,101736.91
2018-09-10T07:32:08.576Z,101704.93
2018-09-10T07:34:37.391Z,101704.48
2018-09-10T07:37:05.803Z,101708.02
2018-09-10T07:39:34.230Z,101703.53
2018-09-10T07:42:02.781Z,101706.59
2018-09-10T07:44:31.297Z,101699.52
2018-09-10T07:46:59.793Z,101707.52
2018-09-10T07:49:28.317Z,101699.56
2018-09-10T07:51:56.841Z,101700.42
2018-09-10T07:54:25.359Z,101690.72
2018-09-10T07:56:53.742Z,101688.98
2018-09-10T07:59:22.437Z,101687.75
2018-09-10T08:01:50.869Z,101688.70
2018-09-10T08:04:19.561Z,101567.82
2018-09-10T08:06:48.141Z,101691.02
2018-09-10T08:09:16.683Z,101679.59
2018-09-10T08:11:45.407Z,101678.77
2018-09-10T08:14:13.933Z,101684.13
2018-09-10T08:16:42.938Z,101672.62
2018-09-10T08:19:11.471Z,101679.77
2018-09-10T08:21:39.934Z,101672.73
2018-09-10T08:24:08.409Z,101662.07
2018-09-10T08:26:36.849Z,101668.30
2018-09-10T08:29:05.547Z,101670.50
2018-09-10T08:31:34.368Z,101668.69
2018-09-10T08:34:02.844Z,101663.80
2018-09-10T08:36:31.307Z,101657.59
2018-09-10T08:38:59.773Z,101654.93
2018-09-10T08:41:28.425Z,101650.97
2018-09-10T08:43:57.136Z,101654.52
2018-09-10T08:46:25.824Z,101652.20
2018-09-10T08:48:54.363Z,101643.23
2018-09-10T08:51:22.857Z,101635.19
2018-09-10T08:53:51.296Z,101671.25
2018-09-10T08:56:19.968Z,101657.98
2018-09-10T08:58:48.244Z,101651.34
2018-09-10T09:01:16.686Z,101649.54
2018-09-10T09:03:45.157Z,101651.73
2018-09-10T09:06:13.826Z,101650.87
2018-09-10T09:08:43.106Z,101649.11
2018-09-10T09:11:12.706Z,101662.48
2018-09-10T09:13:41.133Z,101654.52
2018-09-10T09:16:09.614Z,101656.75
2018-09-10T09:18:38.173Z,101643.42
2018-09-10T09:21:06.643Z,101647.83
2018-09-10T09:23:35.657Z,101647.36
2018-09-10T09:26:04.069Z,101640.23
2018-09-10T09:28:32.498Z,101636.21
2018-09-10T09:31:00.934Z,101631.77
2018-09-10T09:33:29.818Z,101526.92
2018-09-10T09:36:03.465Z,101638.41
2018-09-10T09:38:37.366Z,101631.75
2018-09-10T09:41:10.969Z,101623.80
2018-09-10T09:43:44.663Z,101627.36
2018-09-10T09:46:15.233Z,101630.45
2018-09-10T09:48:44.418Z,101638.89
2018-09-10T09:51:12.928Z,101616.72
2018-09-10T09:53:41.781Z,101618.52
2018-09-10T09:56:10.734Z,101614.53
2018-09-10T09:58:39.149Z,101634.09
2018-09-10T10:01:13.009Z,101599.89
2018-09-10T10:03:47.121Z,101617.22
2018-09-10T10:06:15.590Z,101606.57
2018-09-10T10:08:44.743Z,101606.57
2018-09-10T10:11:13.457Z,101595.88
2018-09-10T10:13:41.968Z,101590.11
2018-09-10T10:16:10.573Z,101580.82
2018-09-10T10:18:39.002Z,101571.05
2018-09-10T10:21:07.586Z,101571.94
2018-09-10T10:23:36.153Z,101585.70
2018-09-10T10:26:04.938Z,101571.05
2018-09-10T10:28:33.992Z,101566.14
2018-09-10T10:31:02.641Z,101569.25
2018-09-10T10:33:31.133Z,101560.37
2018-09-10T10:35:59.808Z,101559.48
2018-09-10T10:38:28.245Z,101547.05
2018-09-10T10:40:56.937Z,101550.61
2018-09-10T10:43:25.925Z,101548.83
2018-09-10T10:45:54.371Z,101536.41
2018-09-10T10:48:22.803Z,101535.06
2018-09-10T10:50:51.981Z,101533.73
2018-09-10T10:53:20.446Z,101525.74
2018-09-10T10:55:48.881Z,101525.30
2018-09-10T10:58:17.590Z,101531.07
2018-09-10T11:00:46.110Z,101530.17
2018-09-10T11:03:14.545Z,101530.65
2018-09-10T11:05:43.003Z,101544.41
2018-09-10T11:08:11.533Z,101527.52
2018-09-10T11:10:40.125Z,101517.33
2018-09-10T11:13:08.726Z,101530.19
2018-09-10T11:15:37.161Z,101516.00
2018-09-10T11:18:06.080Z,101514.22
2018-09-10T11:20:34.572Z,101514.66
2018-09-10T11:23:03.016Z,101508.00
2018-09-10T11:25:31.596Z,101508.89
2018-09-10T11:28:00.421Z,101504.89
2018-09-10T11:30:28.842Z,101501.34
2018-09-10T11:32:57.483Z,101496.02
2018-09-10T11:35:25.955Z,101492.45
2018-09-10T11:37:54.397Z,101506.23
2018-09-10T11:40:22.825Z,101487.56
2018-09-10T11:42:51.546Z,101488.45
2018-09-10T11:45:20.013Z,101483.14
2018-09-10T11:47:48.481Z,101494.23
2018-09-10T11:50:17.152Z,101483.12
2018-09-10T11:52:45.641Z,101491.56
2018-09-10T11:55:14.092Z,101484.92
2018-09-10T11:57:42.572Z,101474.27
2018-09-10T12:00:11.679Z,101473.36
2018-09-10T12:02:40.138Z,101476.03
2018-09-10T12:05:08.654Z,101467.60
2018-09-10T12:07:37.661Z,101463.17
2018-09-10T12:10:06.474Z,101456.05
2018-09-10T12:12:41.589Z,101479.58
2018-09-10T12:15:10.636Z,101459.16
2018-09-10T12:17:39.093Z,101459.59
2018-09-10T12:20:07.656Z,101470.25
2018-09-10T12:22:42.867Z,101476.46
2018-09-10T12:25:12.230Z,101457.84
2018-09-10T12:27:40.666Z,101458.73
2018-09-10T12:30:09.133Z,101462.30
2018-09-10T12:32:37.570Z,101455.64
2018-09-10T12:35:06.019Z,101444.11
2018-09-10T12:37:34.394Z,101461.86
2018-09-10T12:40:02.805Z,101431.70
2018-09-10T12:42:31.178Z,101442.80
2018-09-10T12:45:00.014Z,101427.72
2018-09-10T12:47:28.430Z,101438.36
2018-09-10T12:49:56.819Z,101439.69
2018-09-10T12:52:25.203Z,101422.39
2018-09-10T12:54:53.639Z,101445.45
2018-09-10T12:57:22.035Z,101395.34
2018-09-10T12:59:50.511Z,101418.41
2018-09-10T13:02:19.004Z,101420.18
2018-09-10T13:04:47.391Z,101410.87
2018-09-10T13:07:15.814Z,101421.95
2018-09-10T13:09:44.222Z,101432.54
2018-09-10T13:12:13.386Z,101417.86
2018-09-10T13:14:41.986Z,101421.80
2018-09-10T13:17:10.482Z,101419.55
2018-09-10T13:19:38.884Z,101414.20
2018-09-10T13:22:07.287Z,101406.22
2018-09-10T13:24:35.987Z,101397.82
2018-09-10T13:27:04.373Z,101403.17
2018-09-10T13:29:32.752Z,101404.95
2018-09-10T13:32:01.146Z,101399.22
2018-09-10T13:34:29.527Z,101393.91
2018-09-10T13:36:57.920Z,101383.30
2018-09-10T13:39:26.492Z,101387.74
2018-09-10T13:41:54.903Z,101385.09
2018-09-10T13:44:23.302Z,101384.67
2018-09-10T13:46:51.834Z,101401.95
2018-09-10T13:49:20.298Z,101372.70
2018-09-10T13:51:48.710Z,101390.92
2018-09-10T13:54:17.259Z,101379.83
2018-09-10T13:56:45.698Z,101372.73
2018-09-10T13:59:14.120Z,101374.07
2018-09-10T14:01:42.596Z,101367.38
2018-09-10T14:04:11.930Z,101371.81
2018-09-10T14:06:41.189Z,101365.17
2018-09-10T14:09:09.869Z,101369.60
2018-09-10T14:11:38.698Z,101360.30
2018-09-10T14:14:07.676Z,101364.28
2018-09-10T14:16:36.250Z,101372.70
2018-09-10T14:19:04.658Z,101378.89
2018-09-10T14:21:33.097Z,101369.55
2018-09-10T14:24:01.533Z,101376.98
2018-09-10T14:26:30.047Z,101377.76
2018-09-10T14:28:58.445Z,101377.20
2018-09-10T14:31:26.866Z,101374.94
2018-09-10T14:33:55.246Z,101381.06
2018-09-10T14:36:23.658Z,101389.38
2018-09-10T14:38:52.100Z,101375.16
2018-09-10T14:41:20.503Z,101376.89
2018-09-10T14:43:49.015Z,101374.16
2018-09-10T14:46:17.496Z,101367.04
2018-09-10T14:48:46.386Z,101374.95
2018-09-10T14:51:14.774Z,101366.96
2018-09-10T14:53:43.234Z,101375.79
2018-09-10T14:56:12.304Z,101372.19
2018-09-10T14:58:40.691Z,101368.61
2018-09-10T15:01:09.118Z,101368.56
2018-09-10T15:03:37.499Z,101356.12
2018-09-10T15:06:05.896Z,101357.84
2018-09-10T15:08:34.407Z,101342.33
2018-09-10T15:11:02.786Z,101324.19
2018-09-10T15:13:31.332Z,101326.80
2018-09-10T15:15:59.762Z,101327.25
2018-09-10T15:18:28.369Z,101318.42
2018-09-10T15:20:56.715Z,101289.98
2018-09-10T15:23:25.183Z,101326.77
2018-09-10T15:25:53.578Z,101319.68
2018-09-10T15:28:22.289Z,101321.83
2018-09-10T15:30:50.699Z,101320.02
2018-09-10T15:33:25.743Z,101319.09
2018-09-10T15:35:54.191Z,101311.50
2018-09-10T15:38:29.582Z,101314.96
2018-09-10T15:40:58.063Z,101314.89
2018-09-10T15:43:26.450Z,101316.60
2018-09-10T15:45:54.849Z,101314.34
2018-09-10T15:48:23.440Z,101308.98
2018-09-10T15:50:52.060Z,101285.83
2018-09-10T15:53:20.668Z,101308.45
2018-09-10T15:55:49.114Z,101320.78
2018-09-10T15:58:17.619Z,101317.22
2018-09-10T16:00:46.142Z,101322.93
2018-09-10T16:03:14.598Z,101331.74
2018-09-10T16:05:43.004Z,101316.73
2018-09-10T16:08:12.086Z,101324.66
2018-09-10T16:10:40.785Z,101326.86
2018-09-10T16:13:09.223Z,101321.12
2018-09-10T16:15:37.643Z,101327.72
2018-09-10T16:18:06.403Z,101338.67
2018-09-10T16:20:34.931Z,101337.27
2018-09-10T16:23:03.330Z,101334.19
2018-09-10T16:25:32.113Z,101338.58
2018-09-10T16:28:00.602Z,101346.08
2018-09-10T16:30:30.122Z,101343.00
2018-09-10T16:32:58.605Z,101336.41
2018-09-10T16:35:27.007Z,101324.11
2018-09-10T16:37:55.423Z,101328.56
2018-09-10T16:40:24.682Z,101326.41
2018-09-10T16:42:53.090Z,101318.97
2018-09-10T16:45:21.508Z,101315.05
2018-09-10T16:47:49.986Z,101323.44
2018-09-10T16:50:19.070Z,101314.65
2018-09-10T16:52:47.942Z,101300.11
2018-09-10T16:55:16.518Z,101295.28
2018-09-10T16:57:44.926Z,101297.52
2018-09-10T17:00:13.366Z,101291.31
2018-09-10T17:02:42.724Z,101293.08
2018-09-10T17:05:11.130Z,101289.10
2018-09-10T17:07:39.610Z,101299.27
2018-09-10T17:10:08.088Z,101294.87
2018-09-10T17:12:36.515Z,101290.87
2018-09-10T17:15:05.442Z,101297.03
2018-09-10T17:17:33.870Z,101300.51
2018-09-10T17:20:02.289Z,101290.78
2018-09-10T17:22:30.894Z,101305.75
2018-09-10T17:24:59.302Z,101302.17
2018-09-10T17:27:27.740Z,101306.56
2018-09-10T17:29:56.131Z,101314.03
2018-09-10T17:32:25.171Z,101321.52
2018-09-10T17:34:53.559Z,101316.20
2018-09-10T17:37:22.044Z,101311.36
2018-09-10T17:39:50.479Z,101318.87
2018-09-10T17:42:18.857Z,101323.29
2018-09-10T17:44:47.502Z,101324.20
2018-09-10T17:47:22.331Z,101321.14
2018-09-10T17:49:50.750Z,101321.16
2018-09-10T17:52:19.136Z,101324.26
2018-09-10T17:54:47.842Z,101318.51
2018-09-10T17:57:16.250Z,101322.02
2018-09-10T17:59:44.903Z,101320.66
2018-09-10T18:02:13.319Z,101328.11
2018-09-10T18:04:42.362Z,101330.68
2018-09-10T18:07:10.779Z,101325.34
2018-09-10T18:09:39.211Z,101331.50
2018-09-10T18:12:07.639Z,101334.56
2018-09-10T18:14:36.033Z,101330.10
2018-09-10T18:17:04.481Z,101326.09
2018-09-10T18:19:32.939Z,101321.17
2018-09-10T18:22:01.349Z,101324.64
2018-09-10T18:24:29.975Z,101325.45
2018-09-10T18:26:58.362Z,101326.27
2018-09-10T18:29:27.254Z,101332.36
2018-09-10T18:31:55.679Z,101338.02
2018-09-10T18:34:24.495Z,101343.69
2018-09-10T18:36:52.907Z,101343.64
2018-09-10T18:39:21.358Z,101344.03
2018-09-10T18:41:49.766Z,101343.09
2018-09-10T18:44:18.155Z,101352.33
2018-09-10T18:46:46.699Z,101357.94
2018-09-10T18:49:15.093Z,101345.50
2018-09-10T18:51:43.498Z,101323.59
2018-09-10T18:54:11.906Z,101356.40
2018-09-10T18:56:41.600Z,101356.33
2018-09-10T18:59:10.109Z,101351.42
2018-09-10T19:01:38.623Z,101358.42
2018-09-10T19:04:07.034Z,101362.34
2018-09-10T19:06:35.456Z,101362.72
2018-09-10T19:09:04.801Z,101363.09
2018-09-10T19:11:33.385Z,101356.89
2018-09-10T19:14:01.882Z,101363.47
2018-09-10T19:16:30.304Z,101359.89
2018-09-10T19:18:58.699Z,101364.71
2018-09-10T19:21:27.135Z,101363.80
2018-09-10T19:23:55.580Z,101359.37
2018-09-10T19:26:24.298Z,101362.84
2018-09-10T19:28:52.758Z,101361.05
2018-09-10T19:31:21.255Z,101360.98
2018-09-10T19:33:49.655Z,101360.04
2018-09-10T19:36:18.138Z,101357.80
2018-09-10T19:38:46.570Z,101354.67
2018-09-10T19:41:14.970Z,101354.22
2018-09-10T19:43:43.412Z,101351.52
2018-09-10T19:46:11.864Z,101352.37
2018-09-10T19:48:40.635Z,101352.37
2018-09-10T19:51:09.042Z,101342.66
2018-09-10T19:53:37.494Z,101344.34
2018-09-10T19:56:05.914Z,101344.28
2018-09-10T19:58:34.517Z,101335.91
2018-09-10T20:01:02.957Z,101338.06
2018-09-10T20:03:31.390Z,101340.21
2018-09-10T20:05:59.802Z,101345.43
2018-09-10T20:08:28.288Z,101342.73
2018-09-10T20:10:56.699Z,101344.02
2018-09-10T20:13:25.098Z,101336.05
2018-09-10T20:15:53.713Z,101341.30
2018-09-10T20:18:22.203Z,101339.48
2018-09-10T20:23:25.295Z,101347.28
2018-09-10T20:25:53.834Z,101345.95
2018-09-10T20:28:22.827Z,101356.14
2018-09-10T20:30:51.291Z,101347.37
2018-09-10T20:33:20.186Z,101351.36
2018-09-10T20:35:48.566Z,101350.47
2018-09-10T20:38:17.446Z,101357.53
2018-09-10T20:40:45.838Z,101357.06
2018-09-10T20:43:14.775Z,101354.43
2018-09-10T20:45:43.289Z,101357.50
2018-09-10T20:48:12.706Z,101357.92
2018-09-10T20:50:41.139Z,101360.96
2018-09-10T20:53:09.654Z,101357.03
2018-09-10T20:55:38.740Z,101357.47
2018-09-10T20:58:07.138Z,101366.67
2018-09-10T21:00:35.641Z,101367.04
2018-09-10T21:03:04.903Z,101369.67
2018-09-10T21:05:33.282Z,101360.44
2018-09-10T21:08:01.727Z,101364.40
2018-09-10T21:10:30.126Z,101365.26
2018-09-10T21:12:58.579Z,101367.90
2018-09-10T21:15:27.032Z,101354.24
2018-09-10T21:17:55.475Z,101353.35
2018-09-10T21:20:24.304Z,101249.12
2018-09-10T21:22:53.170Z,101347.19
2018-09-10T21:25:21.618Z,101347.61
2018-09-10T21:27:50.006Z,101347.58
2018-09-10T21:30:18.611Z,101343.66
2018-09-10T21:32:47.026Z,101332.21
2018-09-10T21:35:15.446Z,101338.37
2018-09-10T21:37:44.042Z,101340.55
2018-09-10T21:40:12.718Z,101340.95
2018-09-10T21:42:41.171Z,101342.20
2018-09-10T21:45:09.603Z,101343.06
2018-09-10T21:47:37.990Z,101353.69
2018-09-10T21:50:06.459Z,101345.77
2018-09-10T21:52:35.067Z,101350.55
2018-09-10T21:55:03.545Z,101354.52
2018-09-10T21:57:31.939Z,101350.09
2018-09-10T22:00:00.390Z,101351.84
2018-09-10T22:02:36.086Z,101358.01
2018-09-10T22:05:04.622Z,101349.63
2018-09-10T22:07:33.225Z,101331.00
2018-09-10T22:10:01.634Z,101350.12
2018-09-10T22:12:30.087Z,101354.08
2018-09-10T22:14:58.498Z,101349.30
2018-09-10T22:17:26.902Z,101345.80
2018-09-10T22:19:55.347Z,101340.89
2018-09-10T22:22:23.802Z,101345.77
2018-09-10T22:24:52.201Z,101340.89
2018-09-10T22:27:20.830Z,101339.54
2018-09-10T22:29:49.225Z,101345.67
2018-09-10T22:32:17.807Z,101344.78
2018-09-10T22:34:46.241Z,101335.52
2018-09-10T22:37:14.635Z,101344.33
2018-09-10T22:39:43.115Z,101339.91
2018-09-10T22:42:11.651Z,101331.93
2018-09-10T22:44:40.620Z,101345.98
2018-09-10T22:47:09.011Z,101340.67
2018-09-10T22:49:37.842Z,101337.11
2018-09-10T22:52:06.280Z,101337.57
2018-09-10T22:54:34.711Z,101334.90
2018-09-10T22:57:03.147Z,101335.76
2018-09-10T22:59:31.557Z,101337.97
2018-09-10T23:01:59.938Z,101334.84
2018-09-10T23:04:28.365Z,101335.27
2018-09-10T23:06:56.758Z,101338.80
2018-09-10T23:09:25.370Z,101336.55
2018-09-10T23:11:53.774Z,101332.13
2018-09-10T23:14:22.178Z,101334.77
2018-09-10T23:16:50.568Z,101334.77
2018-09-10T23:19:18.998Z,101327.29
2018-09-10T23:21:47.382Z,101322.91
2018-09-10T23:24:15.781Z,101327.78
2018-09-10T23:26:44.319Z,101326.46
2018-09-10T23:29:12.706Z,101330.42
2018-09-10T23:31:41.090Z,101323.83
2018-09-10T23:34:09.650Z,101319.41
2018-09-10T23:36:38.101Z,101321.59
2018-09-10T23:39:08.470Z,101317.16
2018-09-10T23:41:36.927Z,101321.98
2018-09-10T23:44:05.682Z,101327.26
2018-09-10T23:46:34.162Z,101333.81
2018-09-10T23:49:02.558Z,101335.96
2018-09-10T23:51:30.961Z,101335.03
2018-09-10T23:53:59.470Z,101338.14
2018-09-10T23:56:27.922Z,101343.38
2018-09-10T23:58:56.798Z,101347.77
